createdAt,value
2018-09-25T00:01:50.001Z,100518.50
2018-09-25T00:04:25.644Z,100528.98
2018-09-25T00:07:01.441Z,100534.94
2018-09-25T00:09:36.849Z,100539.80
2018-09-25T00:12:13.904Z,100536.88
2018-09-25T00:14:49.672Z,100539.63
2018-09-25T00:17:25.510Z,100538.70
2018-09-25T00:20:01.504Z,100543.61
2018-09-25T00:22:37.175Z,100557.78
2018-09-25T00:25:13.047Z,100549.44
2018-09-25T00:27:49.033Z,100551.02
2018-09-25T00:30:32.344Z,100553.27
2018-09-25T00:33:08.228Z,100547.00
2018-09-25T00:35:43.912Z,100560.19
2018-09-25T00:38:19.417Z,100562.11
2018-09-25T00:40:54.691Z,100565.05
2018-09-25T00:43:30.521Z,100560.88
2018-09-25T00:46:05.932Z,100555.53
2018-09-25T00:48:41.628Z,100559.37
2018-09-25T00:51:17.208Z,100533.08
2018-09-25T00:53:53.100Z,100550.21
2018-09-25T00:56:28.696Z,100528.23
2018-09-25T00:59:04.467Z,100553.17
2018-09-25T01:01:40.090Z,100556.38
2018-09-25T01:04:17.215Z,100552.03
2018-09-25T01:06:52.932Z,100559.97
2018-09-25T01:09:28.768Z,100559.61
2018-09-25T01:12:04.638Z,100554.38
2018-09-25T01:14:40.260Z,100570.77
2018-09-25T01:17:16.447Z,100571.23
2018-09-25T01:19:52.361Z,100573.48
2018-09-25T01:22:28.179Z,100572.16
2018-09-25T01:25:03.901Z,100576.63
2018-09-25T01:27:39.431Z,100576.22
2018-09-25T01:30:15.617Z,100575.85
2018-09-25T01:32:51.670Z,100592.13
2018-09-25T01:35:28.034Z,100584.27
2018-09-25T01:38:03.724Z,100591.35
2018-09-25T01:40:39.302Z,100592.64
2018-09-25T01:43:15.128Z,100595.71
2018-09-25T01:45:50.935Z,100603.21
2018-09-25T01:48:26.994Z,100606.34
2018-09-25T01:51:02.760Z,100608.52
2018-09-25T01:53:38.589Z,100617.72
2018-09-25T01:56:14.703Z,100621.33
2018-09-25T01:58:50.512Z,100614.80
2018-09-25T02:01:26.535Z,100627.82
2018-09-25T02:04:02.271Z,100618.72
2018-09-25T02:06:37.864Z,100629.63
2018-09-25T02:09:14.551Z,100621.37
2018-09-25T02:11:50.466Z,100632.79
2018-09-25T02:14:26.606Z,100631.47
2018-09-25T02:17:02.647Z,100641.63
2018-09-25T02:19:38.164Z,100638.66
2018-09-25T02:22:13.902Z,100652.67
2018-09-25T02:24:49.839Z,100645.66
2018-09-25T02:27:25.667Z,100645.78
2018-09-25T02:30:01.232Z,100662.49
2018-09-25T02:32:37.452Z,100662.84
2018-09-25T02:35:14.685Z,100664.62
2018-09-25T02:37:50.257Z,100677.78
2018-09-25T02:40:25.920Z,100672.18
2018-09-25T02:43:01.788Z,100679.03
2018-09-25T02:45:37.989Z,100669.62
2018-09-25T02:48:13.926Z,100674.48
2018-09-25T02:50:49.553Z,100684.14
2018-09-25T02:53:25.317Z,100688.91
2018-09-25T02:56:00.982Z,100683.38
2018-09-25T02:58:36.506Z,100693.48
2018-09-25T03:01:12.231Z,100693.89
2018-09-25T03:03:47.663Z,100694.37
2018-09-25T03:06:23.539Z,100700.95
2018-09-25T03:08:59.411Z,100691.85
2018-09-25T03:11:35.275Z,100697.56
2018-09-25T03:16:53.200Z,100699.39
2018-09-25T03:19:28.564Z,100716.05
2018-09-25T03:22:04.341Z,100713.51
2018-09-25T03:24:39.955Z,100709.68
2018-09-25T03:27:18.368Z,100714.94
2018-09-25T03:29:53.964Z,100715.37
2018-09-25T03:32:29.648Z,100714.15
2018-09-25T03:35:05.304Z,100720.99
2018-09-25T03:37:40.827Z,100724.55
2018-09-25T03:40:17.084Z,100720.19
2018-09-25T03:42:52.908Z,100725.42
2018-09-25T03:45:28.648Z,100726.34
2018-09-25T03:48:04.358Z,100726.34
2018-09-25T03:50:39.862Z,100730.82
2018-09-25T03:53:17.918Z,100728.27
2018-09-25T03:55:53.696Z,100725.56
2018-09-25T03:58:29.571Z,100724.28
2018-09-25T04:01:05.275Z,100731.42
2018-09-25T04:03:41.275Z,100727.90
2018-09-25T04:06:16.862Z,100721.41
2018-09-25T04:08:53.530Z,100728.43
2018-09-25T04:11:29.624Z,100723.23
2018-09-25T04:14:04.888Z,100733.84
2018-09-25T04:16:41.928Z,100741.33
2018-09-25T04:19:17.583Z,100744.73
2018-09-25T04:21:53.356Z,100739.91
2018-09-25T04:24:29.046Z,100740.48
2018-09-25T04:27:04.925Z,100739.19
2018-09-25T04:29:40.897Z,100735.63
2018-09-25T04:32:16.770Z,100751.41
2018-09-25T04:34:52.560Z,100762.84
2018-09-25T04:37:28.346Z,100758.47
2018-09-25T04:40:04.633Z,100763.70
2018-09-25T04:42:40.272Z,100757.68
2018-09-25T04:45:18.518Z,100763.82
2018-09-25T04:47:54.395Z,100762.59
2018-09-25T04:50:30.216Z,100768.70
2018-09-25T04:53:05.991Z,100775.80
2018-09-25T04:55:41.585Z,100780.19
2018-09-25T04:58:17.365Z,100781.94
2018-09-25T05:00:53.363Z,100786.29
2018-09-25T05:03:29.016Z,100777.52
2018-09-25T05:06:05.672Z,100785.03
2018-09-25T05:08:41.653Z,100783.72
2018-09-25T05:11:17.765Z,100788.08
2018-09-25T05:13:53.578Z,100795.55
2018-09-25T05:16:29.129Z,100803.00
2018-09-25T05:19:05.626Z,100802.09
2018-09-25T05:21:41.459Z,100810.33
2018-09-25T05:24:17.264Z,100802.05
2018-09-25T05:26:52.859Z,100808.17
2018-09-25T05:29:28.694Z,100817.78
2018-09-25T05:32:04.452Z,100812.53
2018-09-25T05:34:40.277Z,100812.44
2018-09-25T05:37:15.852Z,100812.02
2018-09-25T05:39:51.907Z,100813.69
2018-09-25T05:42:27.306Z,100817.63
2018-09-25T05:45:03.165Z,100824.13
2018-09-25T05:47:39.772Z,100830.33
2018-09-25T05:50:15.467Z,100824.66
2018-09-25T05:52:51.080Z,100825.42
2018-09-25T05:55:29.498Z,100817.97
2018-09-25T05:58:05.953Z,100836.23
2018-09-25T06:00:41.536Z,100837.14
2018-09-25T06:03:17.105Z,100834.41
2018-09-25T06:05:53.189Z,100827.94
2018-09-25T06:08:29.479Z,100851.07
2018-09-25T06:11:05.214Z,100848.03
2018-09-25T06:13:40.776Z,100854.11
2018-09-25T06:16:16.363Z,100859.23
2018-09-25T06:18:52.360Z,100857.48
2018-09-25T06:21:28.678Z,100836.08
2018-09-25T06:24:04.520Z,100851.07
2018-09-25T06:26:40.317Z,100870.28
2018-09-25T06:29:16.723Z,100862.24
2018-09-25T06:31:52.573Z,100858.42
2018-09-25T06:34:28.165Z,100865.94
2018-09-25T06:37:04.631Z,100878.11
2018-09-25T06:39:41.407Z,100867.03
2018-09-25T06:42:17.332Z,100881.02
2018-09-25T06:44:52.996Z,100878.42
2018-09-25T06:47:28.618Z,100881.86
2018-09-25T06:50:04.201Z,100888.03
2018-09-25T06:52:39.844Z,100894.10
2018-09-25T06:55:15.926Z,100867.98
2018-09-25T06:57:51.797Z,100912.25
2018-09-25T07:00:27.691Z,100914.95
2018-09-25T07:03:03.276Z,100917.00
2018-09-25T07:05:38.907Z,100921.44
2018-09-25T07:08:14.830Z,100940.62
2018-09-25T07:10:50.221Z,100940.31
2018-09-25T07:13:26.327Z,100945.26
2018-09-25T07:16:01.943Z,100946.05
2018-09-25T07:18:37.741Z,100940.89
2018-09-25T07:21:13.547Z,100942.78
2018-09-25T07:23:49.272Z,100949.67
2018-09-25T07:26:24.803Z,100959.42
2018-09-25T07:29:00.654Z,100964.29
2018-09-25T07:31:36.080Z,100966.75
2018-09-25T07:34:12.000Z,100977.92
2018-09-25T07:36:47.666Z,100974.84
2018-09-25T07:39:23.537Z,100988.55
2018-09-25T07:41:59.391Z,100977.05
2018-09-25T07:44:35.085Z,100973.34
2018-09-25T07:47:11.025Z,100973.16
2018-09-25T07:49:46.808Z,100976.11
2018-09-25T07:52:22.628Z,100974.98
2018-09-25T07:54:58.421Z,100988.45
2018-09-25T07:57:33.838Z,100962.19
2018-09-25T08:00:09.689Z,100992.22
2018-09-25T08:02:45.411Z,100999.29
2018-09-25T08:05:20.996Z,101005.38
2018-09-25T08:07:57.639Z,101004.95
2018-09-25T08:10:33.321Z,101001.72
2018-09-25T08:13:08.883Z,101006.77
2018-09-25T08:15:45.150Z,101030.67
2018-09-25T08:18:20.679Z,101022.34
2018-09-25T08:20:56.329Z,101019.34
2018-09-25T08:23:32.269Z,101023.98
2018-09-25T08:26:08.144Z,101026.05
2018-09-25T08:28:44.604Z,101024.95
2018-09-25T08:31:21.284Z,101035.72
2018-09-25T08:33:57.293Z,101044.81
2018-09-25T08:36:33.158Z,101046.42
2018-09-25T08:39:09.090Z,101050.84
2018-09-25T08:41:45.617Z,101057.23
2018-09-25T08:44:21.465Z,101062.11
2018-09-25T08:46:59.056Z,101065.20
2018-09-25T08:49:34.567Z,101065.77
2018-09-25T08:52:10.786Z,101063.08
2018-09-25T08:54:46.258Z,101067.11
2018-09-25T08:57:22.328Z,101067.14
2018-09-25T08:59:57.751Z,101075.83
2018-09-25T09:02:33.710Z,101071.95
2018-09-25T09:05:09.756Z,101068.00
2018-09-25T09:07:45.210Z,101073.78
2018-09-25T09:10:20.991Z,101077.58
2018-09-25T09:12:56.456Z,101073.73
2018-09-25T09:15:32.540Z,101084.48
2018-09-25T09:18:08.453Z,101088.14
2018-09-25T09:20:44.330Z,101075.88
2018-09-25T09:23:20.650Z,101092.52
2018-09-25T09:25:56.554Z,101089.05
2018-09-25T09:28:32.176Z,101081.39
2018-09-25T09:31:07.784Z,101091.19
2018-09-25T09:33:43.390Z,101089.15
2018-09-25T09:36:19.232Z,101095.33
2018-09-25T09:38:55.042Z,101086.31
2018-09-25T09:41:30.946Z,101087.32
2018-09-25T09:44:07.322Z,101090.25
2018-09-25T09:46:43.021Z,101079.70
2018-09-25T09:49:18.883Z,101076.04
2018-09-25T09:51:54.613Z,101093.48
2018-09-25T09:54:30.023Z,101083.66
2018-09-25T09:57:06.728Z,101077.97
2018-09-25T09:59:42.418Z,101087.31
2018-09-25T10:02:18.764Z,101081.52
2018-09-25T10:04:54.578Z,101094.23
2018-09-25T10:07:30.746Z,101101.75
2018-09-25T10:10:07.777Z,101096.18
2018-09-25T10:12:43.514Z,101100.63
2018-09-25T10:15:19.289Z,101092.42
2018-09-25T10:18:01.085Z,101095.52
2018-09-25T10:20:45.799Z,101105.53
2018-09-25T10:23:21.572Z,101110.44
2018-09-25T10:25:57.417Z,101101.95
2018-09-25T10:28:33.011Z,101104.44
2018-09-25T10:31:08.866Z,101103.78
2018-09-25T10:33:44.783Z,101074.21
2018-09-25T10:39:25.412Z,101098.92
2018-09-25T10:42:01.503Z,101105.70
2018-09-25T10:44:37.170Z,101090.13
2018-09-25T10:47:13.659Z,101096.92
2018-09-25T10:49:52.324Z,101099.10
2018-09-25T10:52:28.328Z,101094.18
2018-09-25T10:55:03.783Z,101013.23
2018-09-25T10:57:42.050Z,101093.36
2018-09-25T11:00:17.781Z,101096.08
2018-09-25T11:02:54.600Z,101105.14
2018-09-25T11:05:30.741Z,101106.77
2018-09-25T11:08:07.284Z,101089.89
2018-09-25T11:10:43.181Z,101086.93
2018-09-25T11:13:18.942Z,101091.88
2018-09-25T11:15:55.021Z,101096.92
2018-09-25T11:18:31.493Z,101096.92
2018-09-25T11:21:07.442Z,101095.83
2018-09-25T11:23:43.310Z,101101.41
2018-09-25T11:26:18.908Z,101100.67
2018-09-25T11:28:54.549Z,101093.24
2018-09-25T11:31:30.352Z,101092.41
2018-09-25T11:34:06.240Z,101095.85
2018-09-25T11:36:42.741Z,101092.72
2018-09-25T11:39:18.590Z,101088.59
2018-09-25T11:41:54.368Z,101090.77
2018-09-25T11:44:30.222Z,101086.48
2018-09-25T11:47:07.078Z,101091.03
2018-09-25T11:49:43.008Z,101077.13
2018-09-25T11:52:19.041Z,101085.81
2018-09-25T11:54:55.886Z,101080.80
2018-09-25T11:57:32.599Z,101088.52
2018-09-25T12:00:09.383Z,101088.10
2018-09-25T12:02:45.931Z,101090.48
2018-09-25T12:05:23.677Z,101082.34
2018-09-25T12:07:59.508Z,101090.40
2018-09-25T12:10:35.401Z,101084.41
2018-09-25T12:13:10.884Z,101082.43
2018-09-25T12:15:46.394Z,101086.91
2018-09-25T12:18:22.069Z,101083.63
2018-09-25T12:20:57.757Z,101086.11
2018-09-25T12:23:34.423Z,101085.18
2018-09-25T12:26:09.906Z,101087.13
2018-09-25T12:28:45.786Z,101085.28
2018-09-25T12:31:21.481Z,101074.83
2018-09-25T12:33:57.290Z,101079.16
2018-09-25T12:36:32.716Z,101071.90
2018-09-25T12:39:08.323Z,101080.50
2018-09-25T12:41:44.034Z,101079.97
2018-09-25T12:44:19.890Z,101085.46
2018-09-25T12:46:55.996Z,101079.83
2018-09-25T12:49:31.548Z,101073.06
2018-09-25T12:52:07.034Z,101074.33
2018-09-25T12:54:42.843Z,101068.37
2018-09-25T12:57:18.592Z,101069.84
2018-09-25T12:59:54.600Z,101066.81
2018-09-25T13:02:30.286Z,101066.08
2018-09-25T13:05:06.125Z,101064.44
2018-09-25T13:07:41.997Z,101066.74
2018-09-25T13:10:17.811Z,101069.30
2018-09-25T13:12:53.577Z,101066.19
2018-09-25T13:15:29.109Z,101065.52
2018-09-25T13:18:04.898Z,101066.88
2018-09-25T13:20:40.627Z,101068.45
2018-09-25T13:23:18.205Z,101071.42
2018-09-25T13:25:53.794Z,101072.75
2018-09-25T13:28:29.364Z,101069.93
2018-09-25T13:31:04.821Z,101069.93
2018-09-25T13:33:40.639Z,101075.77
2018-09-25T13:36:16.307Z,101076.94
2018-09-25T13:38:52.124Z,101074.77
2018-09-25T13:41:28.012Z,101064.14
2018-09-25T13:44:03.680Z,101069.66
2018-09-25T13:46:39.984Z,101062.14
2018-09-25T13:49:15.757Z,101057.78
2018-09-25T13:51:51.514Z,101059.34
2018-09-25T13:54:27.082Z,101057.16
2018-09-25T13:57:02.937Z,101033.14
2018-09-25T13:59:38.778Z,101062.95
2018-09-25T14:02:14.332Z,101056.11
2018-09-25T14:04:49.874Z,101056.70
2018-09-25T14:07:26.003Z,101058.72
2018-09-25T14:10:02.065Z,101070.67
2018-09-25T14:12:39.107Z,101063.03
2018-09-25T14:15:15.480Z,101060.83
2018-09-25T14:17:50.857Z,101061.74
2018-09-25T14:20:26.943Z,101059.51
2018-09-25T14:23:02.871Z,101057.05
2018-09-25T14:25:38.756Z,101063.47
2018-09-25T14:28:14.669Z,101057.80
2018-09-25T14:30:51.872Z,101069.81
2018-09-25T14:33:27.505Z,101065.67
2018-09-25T14:36:03.701Z,101067.37
2018-09-25T14:38:41.126Z,101066.30
2018-09-25T14:41:18.302Z,101071.98
2018-09-25T14:43:54.187Z,101077.41
2018-09-25T14:46:30.088Z,101075.62
2018-09-25T14:49:06.366Z,101076.16
2018-09-25T14:51:42.232Z,101079.94
2018-09-25T14:54:18.202Z,101071.78
2018-09-25T14:56:54.080Z,101064.91
2018-09-25T14:59:29.640Z,101070.34
2018-09-25T15:02:05.461Z,101071.08
2018-09-25T15:04:41.121Z,101072.19
2018-09-25T15:07:16.997Z,101077.57
2018-09-25T15:09:53.084Z,101062.11
2018-09-25T15:12:28.847Z,101058.31
2018-09-25T15:15:04.716Z,101063.47
2018-09-25T15:17:40.451Z,101065.17
2018-09-25T15:20:16.006Z,101061.93
2018-09-25T15:22:51.582Z,101065.36
2018-09-25T15:25:27.459Z,101054.25
2018-09-25T15:28:03.059Z,101060.67
2018-09-25T15:30:38.730Z,101064.64
2018-09-25T15:33:14.331Z,101069.05
2018-09-25T15:35:50.248Z,101072.06
2018-09-25T15:38:26.260Z,101069.83
2018-09-25T15:41:02.032Z,101086.08
2018-09-25T15:43:52.436Z,101082.08
2018-09-25T15:46:29.310Z,101081.59
2018-09-25T15:49:05.895Z,101090.42
2018-09-25T15:51:41.799Z,101091.30
2018-09-25T15:54:17.417Z,101095.09
2018-09-25T15:56:54.531Z,101101.20
2018-09-25T15:59:30.549Z,101094.33
2018-09-25T16:02:06.115Z,101099.47
2018-09-25T16:04:41.996Z,101098.03
2018-09-25T16:07:18.519Z,101104.16
2018-09-25T16:09:54.451Z,101101.52
2018-09-25T16:12:31.311Z,101109.50
2018-09-25T16:15:06.884Z,101102.59
2018-09-25T16:17:42.786Z,101108.67
2018-09-25T16:20:18.454Z,101118.22
2018-09-25T16:22:53.898Z,101117.14
2018-09-25T16:25:29.692Z,101123.95
2018-09-25T16:28:06.011Z,101125.43
2018-09-25T16:30:42.726Z,101117.92
2018-09-25T16:33:20.845Z,101120.73
2018-09-25T16:35:56.719Z,101131.73
2018-09-25T16:38:32.615Z,101128.30
2018-09-25T16:41:08.422Z,101132.56
2018-09-25T16:43:43.809Z,101136.17
2018-09-25T16:46:19.888Z,101138.57
2018-09-25T16:48:55.545Z,101141.83
2018-09-25T16:51:31.719Z,101137.93
2018-09-25T16:54:07.696Z,101138.45
2018-09-25T16:56:43.173Z,101131.56
2018-09-25T16:59:19.590Z,101137.95
2018-09-25T17:01:55.350Z,101143.38
2018-09-25T17:04:32.263Z,101156.66
2018-09-25T17:07:08.272Z,101160.09
2018-09-25T17:09:44.151Z,101162.67
2018-09-25T17:12:20.104Z,101155.60
2018-09-25T17:14:55.753Z,101163.19
2018-09-25T17:17:31.316Z,101160.73
2018-09-25T17:20:07.051Z,101169.73
2018-09-25T17:22:42.832Z,101175.03
2018-09-25T17:25:18.417Z,101174.72
2018-09-25T17:27:53.934Z,101184.99
2018-09-25T17:30:29.875Z,101185.39
2018-09-25T17:33:05.753Z,101194.28
2018-09-25T17:35:41.556Z,101192.59
2018-09-25T17:38:17.440Z,101196.66
2018-09-25T17:40:53.293Z,101191.49
2018-09-25T17:43:29.435Z,101197.77
2018-09-25T17:46:05.206Z,101193.39
2018-09-25T17:48:40.784Z,101198.61
2018-09-25T17:51:16.864Z,101201.30
2018-09-25T17:53:52.725Z,101214.57
2018-09-25T17:56:28.612Z,101209.92
2018-09-25T17:59:04.452Z,101214.30
2018-09-25T18:01:40.230Z,101214.09
2018-09-25T18:04:16.227Z,101221.98
2018-09-25T18:06:51.826Z,101225.75
2018-09-25T18:09:27.889Z,101234.18
2018-09-25T18:12:03.727Z,101242.00
2018-09-25T18:14:39.650Z,101246.00
2018-09-25T18:17:15.131Z,101250.30
2018-09-25T18:19:50.687Z,101259.92
2018-09-25T18:22:26.806Z,101257.28
2018-09-25T18:25:02.301Z,101260.11
2018-09-25T18:27:38.350Z,101261.02
2018-09-25T18:30:14.044Z,101260.39
2018-09-25T18:32:49.726Z,101265.09
2018-09-25T18:35:25.392Z,101273.59
2018-09-25T18:38:01.046Z,101283.13
2018-09-25T18:40:36.539Z,101287.08
2018-09-25T18:43:12.271Z,101280.69
2018-09-25T18:45:48.091Z,101286.39
2018-09-25T18:48:23.833Z,101294.36
2018-09-25T18:51:00.270Z,101300.47
2018-09-25T18:53:35.769Z,101294.30
2018-09-25T18:56:11.298Z,101296.11
2018-09-25T18:58:47.013Z,101299.84
2018-09-25T19:01:22.538Z,101304.81
2018-09-25T19:03:57.995Z,101299.92
2018-09-25T19:06:33.479Z,101305.62
2018-09-25T19:09:09.645Z,101317.17
2018-09-25T19:11:45.345Z,101310.48
2018-09-25T19:14:21.509Z,101321.14
2018-09-25T19:16:57.352Z,101321.59
2018-09-25T19:19:33.259Z,101323.28
2018-09-25T19:22:08.808Z,101323.38
2018-09-25T19:24:44.658Z,101319.51
2018-09-25T19:27:20.467Z,101336.66
2018-09-25T19:29:56.313Z,101334.11
2018-09-25T19:32:31.933Z,101344.65
2018-09-25T19:35:07.558Z,101336.33
2018-09-25T19:37:43.260Z,101342.01
2018-09-25T19:40:19.101Z,101342.93
2018-09-25T19:42:55.033Z,101352.19
2018-09-25T19:45:30.551Z,101346.57
2018-09-25T19:48:06.696Z,101357.59
2018-09-25T19:50:42.551Z,101356.34
2018-09-25T19:53:18.277Z,101353.34
2018-09-25T19:55:54.144Z,101356.39
2018-09-25T19:58:29.882Z,101358.55
2018-09-25T20:01:05.706Z,101350.29
2018-09-25T20:03:41.489Z,101348.13
2018-09-25T20:06:17.071Z,101353.41
2018-09-25T20:08:54.494Z,101353.84
2018-09-25T20:11:30.194Z,101352.99
2018-09-25T20:14:06.120Z,101353.00
2018-09-25T20:16:41.956Z,101352.63
2018-09-25T20:19:17.808Z,101354.84
2018-09-25T20:21:53.418Z,101351.32
2018-09-25T20:24:29.213Z,101362.77
2018-09-25T20:27:05.589Z,101367.19
2018-09-25T20:29:41.517Z,101367.69
2018-09-25T20:32:17.578Z,101374.27
2018-09-25T20:34:53.056Z,101373.41
2018-09-25T20:37:28.890Z,101371.64
2018-09-25T20:40:04.844Z,101375.63
2018-09-25T20:42:40.619Z,101380.06
2018-09-25T20:45:16.196Z,101380.52
2018-09-25T20:47:52.025Z,101380.98
2018-09-25T20:50:27.918Z,101351.73
2018-09-25T20:53:07.094Z,101315.05
2018-09-25T20:55:42.655Z,101375.38
2018-09-25T20:58:18.337Z,101383.69
2018-09-25T21:00:54.168Z,101388.98
2018-09-25T21:03:29.688Z,101383.30
2018-09-25T21:06:05.694Z,101382.44
2018-09-25T21:08:41.468Z,101386.37
2018-09-25T21:11:17.351Z,101392.52
2018-09-25T21:13:54.353Z,101389.46
2018-09-25T21:16:29.898Z,101400.39
2018-09-25T21:19:05.490Z,101399.52
2018-09-25T21:21:40.807Z,101406.08
2018-09-25T21:24:16.848Z,101406.08
2018-09-25T21:26:52.601Z,101404.78
2018-09-25T21:29:28.453Z,101406.96
2018-09-25T21:32:04.144Z,101413.55
2018-09-25T21:34:40.229Z,101411.35
2018-09-25T21:37:16.531Z,101409.59
2018-09-25T21:39:52.285Z,101408.30
2018-09-25T21:42:27.984Z,101401.71
2018-09-25T21:45:03.933Z,101407.42
2018-09-25T21:47:39.876Z,101405.65
2018-09-25T21:50:15.719Z,101408.73
2018-09-25T21:52:51.508Z,101403.47
2018-09-25T21:55:27.383Z,101407.38
2018-09-25T21:58:03.340Z,101401.27
2018-09-25T22:00:40.752Z,101410.03
2018-09-25T22:03:16.369Z,101405.23
2018-09-25T22:05:52.013Z,101402.16
2018-09-25T22:08:27.645Z,101403.46
2018-09-25T22:11:03.110Z,101400.41
2018-09-25T22:13:38.797Z,101402.58
2018-09-25T22:16:14.308Z,101402.98
2018-09-25T22:18:49.834Z,101405.17
2018-09-25T22:21:25.347Z,101406.47
2018-09-25T22:24:01.150Z,101402.93
2018-09-25T22:26:38.911Z,101402.50
2018-09-25T22:29:15.546Z,101401.66
2018-09-25T22:31:51.364Z,101411.75
2018-09-25T22:34:27.207Z,101416.15
2018-09-25T22:37:03.121Z,101406.06
2018-09-25T22:39:38.956Z,101410.00
2018-09-25T22:42:14.780Z,101407.38
2018-09-25T22:44:50.455Z,101404.73
2018-09-25T22:47:25.975Z,101410.88
2018-09-25T22:50:01.831Z,101401.19
2018-09-25T22:52:37.253Z,101395.48
2018-09-25T22:55:13.152Z,101382.80
2018-09-25T22:57:48.714Z,101389.31
2018-09-25T23:00:24.557Z,101391.95
2018-09-25T23:03:00.138Z,101398.08
2018-09-25T23:05:35.790Z,101391.52
2018-09-25T23:08:12.342Z,101388.37
2018-09-25T23:10:47.903Z,101393.09
2018-09-25T23:13:23.774Z,101392.63
2018-09-25T23:15:59.468Z,101388.34
2018-09-25T23:18:35.310Z,101393.69
2018-09-25T23:21:11.461Z,101395.48
2018-09-25T23:23:46.848Z,101392.89
2018-09-25T23:26:22.394Z,101385.05
2018-09-25T23:28:58.004Z,101397.25
2018-09-25T23:31:33.646Z,101393.76
2018-09-25T23:34:09.615Z,101404.24
2018-09-25T23:36:45.619Z,101398.53
2018-09-25T23:39:20.399Z,101396.81
2018-09-25T23:41:58.084Z,101395.99
2018-09-25T23:46:35.627Z,101396.48
2018-09-25T23:49:11.224Z,101391.22
2018-09-25T23:51:46.496Z,101396.02
2018-09-25T23:54:35.852Z,101393.83
2018-09-25T23:57:12.083Z,101404.36
2018-09-25T23:59:47.785Z,101406.11
